Time;durP1;ratioP1;P1;durP2;ratioP2;P2;SDS_P1;SDS_P2;PMS_P1;PMS_P2;Temp;Humidity;BMP_temperature;BMP_pressure;BME280_temperature;BME280_humidity;BME280_pressure;Samples;Min_cycle;Max_cycle;Signal;HPM_P1;HPM_P2
2023/03/12 00:00:34;;;;;;;6.30;2.65;;;;;;;-148.88;95.25;77239.97;5014274;28;20034;-78
2023/03/12 00:02:59;;;;;;;4.65;2.92;;;;;;;-148.88;95.37;77235.91;5014624;28;20030;-78
2023/03/12 00:05:24;;;;;;;6.45;2.88;;;;;;;-148.88;95.38;77250.13;5014303;28;20030;-78
2023/03/12 00:07:53;;;;;;;7.68;3.53;;;;;;;-148.88;95.23;77250.13;5014131;28;20083;-78
2023/03/12 00:10:19;;;;;;;6.75;3.22;;;;;;;-148.88;96.37;77262.31;5014098;28;20026;-78
2023/03/12 00:12:45;;;;;;;7.95;3.63;;;;;;;-148.88;97.46;77274.50;5014023;28;20076;-78
2023/03/12 00:15:10;;;;;;;6.47;2.90;;;;;;;-148.88;97.58;77280.59;4996493;28;20038;-78
2023/03/12 00:17:36;;;;;;;8.23;3.97;;;;;;;-148.88;97.69;77282.63;5014022;28;20497;-78
2023/03/12 00:20:02;;;;;;;8.30;4.10;;;;;;;-148.88;97.40;77284.66;5014155;28;20037;-78
2023/03/12 00:22:27;;;;;;;9.45;4.43;;;;;;;-148.88;98.05;77290.75;5014540;28;20022;-78
2023/03/12 00:24:55;;;;;;;17.13;5.75;;;;;;;-148.88;98.82;77302.97;5014234;28;20034;-77
2023/03/12 00:27:21;;;;;;;25.10;8.57;;;;;;;-148.88;99.62;77300.94;5014191;28;20030;-78
2023/03/12 00:29:47;;;;;;;34.83;11.32;;;;;;;-148.88;99.81;77302.97;5013740;28;20053;-78
2023/03/12 00:32:12;;;;;;;25.85;10.13;;;;;;;-148.88;99.96;77309.06;5013638;28;20496;-78
2023/03/12 00:34:38;;;;;;;40.58;11.70;;;;;;;-148.88;99.96;77305.00;4996223;28;20033;-78
2023/03/12 00:37:03;;;;;;;20.65;7.63;;;;;;;-148.88;100.00;77300.94;5013449;28;20183;-78
2023/03/12 00:39:28;;;;;;;14.13;6.10;;;;;;;-148.88;99.92;77305.00;4996006;28;20053;-78
2023/03/12 00:41:54;;;;;;;26.33;8.27;;;;;;;-148.88;99.99;77307.03;5013678;28;20053;-77
2023/03/12 00:44:19;;;;;;;33.22;11.38;;;;;;;-148.88;100.00;77307.03;5014221;28;20037;-78
2023/03/12 00:46:44;;;;;;;51.30;16.55;;;;;;;-148.88;100.00;77300.94;5014095;28;20022;-78
2023/03/12 00:49:10;;;;;;;25.88;9.63;;;;;;;-148.88;99.74;77309.06;5013920;28;20105;-78
2023/03/12 00:51:36;;;;;;;11.40;5.82;;;;;;;-148.88;100.00;77313.13;5013794;28;20061;-78
2023/03/12 00:54:02;;;;;;;13.57;5.07;;;;;;;-148.88;100.00;77311.09;5013663;28;20026;-78
2023/03/12 00:56:27;;;;;;;11.73;4.38;;;;;;;-148.88;100.00;77309.06;5015238;28;20029;-78
2023/03/12 00:58:54;;;;;;;9.02;3.75;;;;;;;-148.88;100.00;77309.06;5014403;28;20096;-78
2023/03/12 01:01:20;;;;;;;9.63;4.22;;;;;;;-148.88;100.00;77309.06;5013897;28;20029;-77
2023/03/12 01:03:45;;;;;;;17.85;7.07;;;;;;;-148.88;100.00;77307.03;5013831;28;20021;-77
2023/03/12 01:06:11;;;;;;;20.33;8.57;;;;;;;-148.88;100.00;77315.16;5013990;28;20037;-78
2023/03/12 01:08:37;;;;;;;19.73;7.05;;;;;;;-148.88;100.00;77321.25;5013766;28;20044;-78
2023/03/12 01:11:03;;;;;;;16.73;7.28;;;;;;;-148.88;100.00;77325.31;5014666;28;20032;-77
2023/03/12 01:13:28;;;;;;;16.73;5.95;;;;;;;-148.88;100.00;77317.19;5017524;28;20025;-78
2023/03/12 01:15:53;;;;;;;11.02;4.63;;;;;;;-148.88;100.00;77325.31;5019569;28;20045;-78
2023/03/12 01:18:19;;;;;;;9.07;4.20;;;;;;;-148.88;100.00;77325.31;4999630;28;20025;-78
2023/03/12 01:20:44;;;;;;;8.00;3.97;;;;;;;-148.88;100.00;77323.28;4999527;28;20534;-77
2023/03/12 01:25:39;;;;;;;13.65;5.50;;;;;;;-148.88;100.00;77311.09;5043500;23;20054;-84
2023/03/12 01:28:05;;;;;;;27.33;8.35;;;;;;;-148.88;100.00;77300.94;5016105;28;20439;-84
2023/03/12 01:30:30;;;;;;;15.13;7.00;;;;;;;-148.88;99.56;77305.00;5015939;28;20099;-84
2023/03/12 01:32:56;;;;;;;10.80;4.65;;;;;;;-148.88;99.42;77300.94;4998437;28;20040;-84
2023/03/12 01:35:21;;;;;;;6.80;3.45;;;;;;;-148.88;99.04;77300.94;5014782;28;20022;-84
2023/03/12 01:37:46;;;;;;;6.82;3.40;;;;;;;-148.88;99.22;77307.03;5015740;28;20434;-84
2023/03/12 01:40:19;;;;;;;5.72;3.22;;;;;;;-148.88;99.16;77302.97;5016053;28;20539;-84
2023/03/12 01:42:53;;;;;;;6.03;2.83;;;;;;;-148.88;99.88;77300.94;4998294;28;20025;-84
2023/03/12 01:45:52;;;;;;;7.53;3.72;;;;;;;-148.88;99.59;77309.06;5015718;28;20037;-84
2023/03/12 01:48:18;;;;;;;8.75;3.30;;;;;;;-148.88;100.00;77319.22;4998060;28;20026;-84
2023/03/12 01:50:44;;;;;;;9.13;3.90;;;;;;;-148.88;100.00;77321.25;4997848;28;20096;-84
2023/03/12 01:53:10;;;;;;;11.40;3.72;;;;;;;-148.88;100.00;77329.38;4998268;28;20369;-84
2023/03/12 01:55:35;;;;;;;7.38;3.67;;;;;;;-148.88;100.00;77323.28;5015438;28;20026;-84
2023/03/12 01:58:01;;;;;;;10.32;4.65;;;;;;;-148.88;100.00;77315.16;4998143;28;20126;-84
2023/03/12 02:00:26;;;;;;;18.75;6.57;;;;;;;-148.88;100.00;77305.00;5015493;28;20492;-87
2023/03/12 02:02:58;;;;;;;27.58;12.90;;;;;;;-148.88;100.00;77288.72;5018383;28;20017;-86
2023/03/12 02:05:34;;;;;;;19.83;9.07;;;;;;;-148.88;100.00;77280.59;4998241;28;20076;-84
2023/03/12 02:08:00;;;;;;;19.75;9.30;;;;;;;-148.88;99.56;77272.47;4997848;28;20018;-84
2023/03/12 02:10:26;;;;;;;21.50;9.68;;;;;;;-148.88;99.73;77268.41;4997654;28;20484;-86
2023/03/12 02:12:51;;;;;;;21.38;9.68;;;;;;;-148.88;99.08;77266.38;5018444;28;20485;-87
2023/03/12 02:15:17;;;;;;;20.30;9.55;;;;;;;-148.88;99.19;77268.41;4998128;28;20116;-86
2023/03/12 02:17:42;;;;;;;25.17;9.25;;;;;;;-148.88;99.54;77272.47;5000608;28;20029;-85
2023/03/12 02:20:45;;;;;;;21.00;10.50;;;;;;;-148.88;99.56;77272.47;5015363;28;20030;-85
2023/03/12 02:23:31;;;;;;;22.23;10.93;;;;;;;-148.88;99.54;77272.47;5013840;28;20018;-85
2023/03/12 02:25:58;;;;;;;15.25;6.60;;;;;;;-148.88;100.00;77278.56;4997245;28;20590;-84
2023/03/12 02:28:27;;;;;;;9.48;6.13;;;;;;;-148.88;99.69;77272.47;5015013;28;20036;-85
2023/03/12 02:30:57;;;;;;;7.85;4.65;;;;;;;-148.88;99.74;77272.47;5015377;28;20026;-84
2023/03/12 02:33:22;;;;;;;8.55;5.18;;;;;;;-148.88;99.99;77266.38;5015121;28;20021;-85
2023/03/12 02:35:48;;;;;;;13.27;6.03;;;;;;;-148.88;99.90;77262.31;4997848;28;20033;-85
2023/03/12 02:38:38;;;;;;;12.68;5.50;;;;;;;-148.88;99.76;77252.16;4997029;28;20425;-85
2023/03/12 02:41:11;;;;;;;11.00;4.88;;;;;;;-148.88;99.60;77254.19;4997175;28;20500;-85
2023/03/12 02:43:37;;;;;;;10.50;4.80;;;;;;;-148.88;99.57;77248.09;5015026;28;20045;-85
2023/03/12 02:46:03;;;;;;;10.93;4.53;;;;;;;-148.88;99.39;77250.13;4997676;28;20065;-85
2023/03/12 02:48:28;;;;;;;10.35;4.88;;;;;;;-148.88;99.71;77242.00;4996977;28;20061;-87
2023/03/12 02:50:54;;;;;;;7.93;4.47;;;;;;;-148.88;99.57;77246.06;5017781;28;20065;-84
2023/03/12 02:53:19;;;;;;;11.82;5.28;;;;;;;-148.88;99.37;77244.03;4997114;28;20033;-85
2023/03/12 02:55:44;;;;;;;10.93;5.40;;;;;;;-148.88;99.67;77256.22;5014481;28;20037;-85
2023/03/12 02:58:10;;;;;;;11.05;4.88;;;;;;;-148.88;99.45;77252.16;5014307;28;20030;-85
2023/03/12 03:00:36;;;;;;;9.95;4.32;;;;;;;-148.88;99.73;77260.28;5014240;28;20034;-85
2023/03/12 03:03:02;;;;;;;10.80;4.60;;;;;;;-148.88;100.00;77260.28;5014628;28;20104;-85
2023/03/12 03:08:49;;;;;;;8.40;4.30;;;;;;;-148.88;100.00;77264.34;5014164;28;20145;-85
2023/03/12 03:11:14;;;;;;;10.38;4.90;;;;;;;-148.88;100.00;77262.31;5014270;28;20469;-85
2023/03/12 03:13:40;;;;;;;13.30;4.88;;;;;;;-148.88;100.00;77254.19;4996636;28;20022;-85
2023/03/12 03:16:05;;;;;;;11.25;4.80;;;;;;;-148.88;100.00;77256.22;5018602;28;20030;-88
2023/03/12 03:18:31;;;;;;;10.63;4.85;;;;;;;-148.88;100.00;77248.09;5017124;28;20022;-85
2023/03/12 03:21:01;;;;;;;11.15;5.53;;;;;;;-148.88;100.00;77239.97;4996403;28;20053;-85
2023/03/12 03:23:26;;;;;;;12.10;5.25;;;;;;;-148.88;100.00;77231.84;4996359;28;20022;-88
2023/03/12 03:25:52;;;;;;;10.00;5.07;;;;;;;-148.88;99.96;77227.78;5000340;28;20041;-87
2023/03/12 03:28:22;;;;;;;11.48;5.22;;;;;;;-148.88;99.97;77227.78;5000552;28;20112;-85
2023/03/12 03:30:48;;;;;;;10.93;5.45;;;;;;;-148.88;99.87;77221.69;4997160;28;20064;-85
2023/03/12 03:33:13;;;;;;;11.48;5.20;;;;;;;-148.88;99.83;77223.72;4996292;28;20053;-85
2023/03/12 03:35:38;;;;;;;8.80;4.53;;;;;;;-148.88;100.00;77217.63;4999069;28;20571;-84
2023/03/12 03:38:04;;;;;;;8.80;5.00;;;;;;;-148.88;100.00;77223.72;4997731;28;20029;-85
2023/03/12 03:40:29;;;;;;;14.30;5.43;;;;;;;-148.88;100.00;77211.53;4996133;28;20060;-85
2023/03/12 03:42:54;;;;;;;7.45;4.68;;;;;;;-148.88;100.00;77207.47;5013692;28;20022;-85
2023/03/12 03:45:20;;;;;;;10.52;4.82;;;;;;;-148.88;99.98;77203.41;5013656;28;20552;-86
2023/03/12 03:47:45;;;;;;;11.43;4.22;;;;;;;-148.88;100.00;77195.25;5013532;28;20022;-85
2023/03/12 03:50:11;;;;;;;11.15;4.30;;;;;;;-148.88;99.90;77199.31;4995968;28;20030;-85
2023/03/12 03:52:36;;;;;;;10.02;4.70;;;;;;;-148.88;100.00;77201.34;4996020;28;20029;-86
2023/03/12 03:55:02;;;;;;;9.75;4.13;;;;;;;-148.88;100.00;77199.31;4995864;28;20052;-85
2023/03/12 03:57:27;;;;;;;8.85;4.40;;;;;;;-148.88;100.00;77199.31;4995801;28;20026;-86
2023/03/12 03:59:53;;;;;;;9.13;4.45;;;;;;;-148.88;100.00;77201.34;4996795;28;20030;-85
2023/03/12 04:02:18;;;;;;;9.18;4.28;;;;;;;-148.88;100.00;77193.22;5013812;28;20068;-86
2023/03/12 04:04:43;;;;;;;11.52;4.60;;;;;;;-148.88;99.99;77187.13;4995816;28;20049;-86
2023/03/12 04:07:09;;;;;;;9.38;3.85;;;;;;;-148.88;99.75;77187.13;5013381;28;20018;-86
2023/03/12 04:09:34;;;;;;;7.25;3.65;;;;;;;-148.88;99.38;77176.97;5013387;28;20411;-87
2023/03/12 04:11:59;;;;;;;9.75;4.35;;;;;;;-148.88;99.14;77183.06;4996284;28;20040;-87
2023/03/12 04:14:24;;;;;;;8.40;4.20;;;;;;;-148.88;99.11;77176.97;4999721;28;20029;-89
2023/03/12 04:16:50;;;;;;;6.63;3.88;;;;;;;-148.88;99.51;77166.81;4996056;28;20021;-88
2023/03/12 04:19:15;;;;;;;12.60;4.60;;;;;;;-148.88;99.15;77166.81;4995989;28;20022;-87
2023/03/12 04:21:40;;;;;;;10.00;4.15;;;;;;;-148.88;99.02;77166.81;4995856;28;20028;-88
2023/03/12 04:24:11;;;;;;;8.13;4.15;;;;;;;-148.88;99.10;77162.75;4995818;28;20029;-86
2023/03/12 04:26:36;;;;;;;7.95;3.92;;;;;;;-148.88;98.82;77162.75;4995812;28;20061;-87
2023/03/12 04:29:01;;;;;;;13.00;4.90;;;;;;;-148.88;98.59;77150.56;4995858;28;20041;-87
2023/03/12 04:31:26;;;;;;;8.18;3.97;;;;;;;-148.88;98.43;77156.66;4995876;28;20410;-88
2023/03/12 04:33:51;;;;;;;19.02;4.70;;;;;;;-148.88;98.58;77158.69;5013545;28;20033;-87
2023/03/12 04:36:17;;;;;;;8.63;3.97;;;;;;;-148.88;98.32;77150.56;5013713;28;20420;-87
2023/03/12 04:38:42;;;;;;;9.95;5.55;;;;;;;-148.88;98.26;77146.50;5013433;28;20117;-87
2023/03/12 04:41:11;;;;;;;9.90;4.25;;;;;;;-148.88;98.26;77134.31;5013931;28;20527;-87
2023/03/12 04:43:37;;;;;;;13.15;3.92;;;;;;;-148.88;98.07;77136.34;4995853;28;20042;-88
2023/03/12 04:46:03;;;;;;;8.48;3.92;;;;;;;-148.88;98.08;77126.19;4997124;28;20018;-88
2023/03/12 04:48:29;;;;;;;7.50;3.78;;;;;;;-148.88;97.90;77126.19;4999638;28;20050;-86
2023/03/12 04:50:54;;;;;;;5.72;3.78;;;;;;;-148.88;97.65;77118.06;5017094;28;20032;-84
2023/03/12 04:53:20;;;;;;;6.32;3.65;;;;;;;-148.88;97.44;77116.03;5016676;28;20034;-86
2023/03/12 04:55:46;;;;;;;8.23;3.80;;;;;;;-148.88;96.93;77105.84;4999254;28;20396;-87
2023/03/12 04:58:11;;;;;;;8.52;4.05;;;;;;;-148.88;96.66;77097.72;4999340;28;20559;-86
2023/03/12 05:00:39;;;;;;;10.90;3.88;;;;;;;-148.88;96.32;77093.66;5016883;28;20455;-86
2023/03/12 05:03:05;;;;;;;9.15;4.20;;;;;;;-148.88;95.90;77089.59;4999062;28;20411;-86
2023/03/12 05:05:31;;;;;;;11.30;4.10;;;;;;;-148.88;95.63;77085.53;5016920;28;20025;-87
2023/03/12 05:07:58;;;;;;;14.95;5.30;;;;;;;-148.88;95.91;77083.50;5017324;28;20052;-86
2023/03/12 05:10:24;;;;;;;17.38;5.05;;;;;;;-148.88;95.20;77077.41;4999620;28;20030;-86
2023/03/12 05:12:50;;;;;;;21.73;6.65;;;;;;;-148.88;95.13;77077.41;4999998;28;20041;-89
2023/03/12 05:15:20;;;;;;;24.58;7.28;;;;;;;-148.88;95.47;77071.31;5017433;28;20144;-85
2023/03/12 05:17:46;;;;;;;11.88;4.53;;;;;;;-148.88;94.87;77065.22;5016279;28;20050;-84
2023/03/12 05:20:12;;;;;;;17.45;5.85;;;;;;;-148.88;94.42;77055.06;4998748;28;20119;-85
2023/03/12 05:22:38;;;;;;;22.13;6.53;;;;;;;-148.88;94.77;77055.06;5016546;28;20034;-85
2023/03/12 05:25:03;;;;;;;12.60;4.50;;;;;;;-148.88;94.98;77053.03;5016251;28;20084;-87
2023/03/12 05:27:31;;;;;;;16.67;6.85;;;;;;;-148.88;95.24;77051.00;4998702;28;20018;-85
2023/03/12 05:29:56;;;;;;;16.20;6.57;;;;;;;-148.88;95.75;77048.97;5016395;28;20096;-86
2023/03/12 05:32:22;;;;;;;11.43;5.15;;;;;;;-148.88;95.59;77044.91;4998764;28;20060;-85
2023/03/12 05:34:47;;;;;;;10.35;4.82;;;;;;;-148.88;95.57;77040.84;4999400;28;20026;-85
2023/03/12 05:37:12;;;;;;;17.73;5.85;;;;;;;-148.88;95.55;77036.78;5001698;28;20534;-86
2023/03/12 05:39:38;;;;;;;14.73;5.60;;;;;;;-148.88;95.44;77036.78;4999922;28;20021;-88
2023/03/12 05:42:03;;;;;;;15.82;6.68;;;;;;;-148.88;95.30;77036.78;5016608;28;20032;-86
2023/03/12 05:44:29;;;;;;;15.93;6.53;;;;;;;-148.88;94.81;77022.56;5000364;28;20046;-87
2023/03/12 05:46:54;;;;;;;15.20;5.50;;;;;;;-148.88;95.31;77028.66;5016322;28;20396;-87
2023/03/12 05:49:20;;;;;;;16.35;5.20;;;;;;;-148.88;95.90;77024.59;4999332;28;20120;-85
2023/03/12 05:51:47;;;;;;;11.05;4.88;;;;;;;-148.88;96.28;77028.66;4998987;28;20022;-86
2023/03/12 05:54:16;;;;;;;11.52;5.05;;;;;;;-148.88;97.35;77030.69;4998236;28;20052;-85
2023/03/12 05:56:42;;;;;;;13.73;5.32;;;;;;;-148.88;98.09;77034.75;4997774;28;20060;-85
2023/03/12 05:59:09;;;;;;;14.02;5.53;;;;;;;-148.88;98.46;77040.84;4998004;28;20029;-84
2023/03/12 06:01:36;;;;;;;11.18;5.07;;;;;;;-148.88;99.06;77038.81;4998008;28;20037;-88
2023/03/12 06:04:02;;;;;;;11.43;5.22;;;;;;;-148.88;99.63;77040.84;4997988;28;20432;-88
2023/03/12 06:06:29;;;;;;;18.08;6.13;;;;;;;-148.88;100.00;77048.97;4997883;28;20030;-87
2023/03/12 06:08:55;;;;;;;12.02;5.53;;;;;;;-148.88;100.00;77048.97;4998383;28;20036;-87
2023/03/12 06:11:20;;;;;;;10.80;5.18;;;;;;;-148.88;100.00;77046.94;4998472;28;20034;-87
2023/03/12 06:13:46;;;;;;;15.23;5.55;;;;;;;-148.88;100.00;77048.97;5015530;28;20064;-89
2023/03/12 06:16:17;;;;;;;9.98;4.43;;;;;;;-148.88;100.00;77040.84;5015833;28;20103;-87
2023/03/12 06:18:42;;;;;;;8.20;4.45;;;;;;;-148.88;100.00;77036.78;4998261;28;20053;-89
2023/03/12 06:21:10;;;;;;;10.20;4.70;;;;;;;-148.88;100.00;77028.66;4998207;28;20057;-88
2023/03/12 06:23:36;;;;;;;8.45;4.40;;;;;;;-148.88;100.00;77028.66;4998201;28;20120;-89
2023/03/12 06:26:01;;;;;;;11.32;4.68;;;;;;;-148.88;100.00;77020.53;5015795;28;20061;-89
2023/03/12 06:28:26;;;;;;;8.50;4.75;;;;;;;-148.88;100.00;77016.47;5000210;28;20092;-88
2023/03/12 06:30:53;;;;;;;11.20;4.82;;;;;;;-148.88;100.00;77016.47;5002579;28;20090;-90
2023/03/12 06:33:22;;;;;;;10.98;4.82;;;;;;;-148.88;100.00;77008.34;5000489;28;20018;-87
2023/03/12 06:35:47;;;;;;;10.88;5.03;;;;;;;-148.88;100.00;77004.25;5000265;28;20026;-88
2023/03/12 06:38:13;;;;;;;11.13;5.38;;;;;;;-148.88;100.00;76996.13;5018037;28;20025;-89
2023/03/12 06:40:38;;;;;;;8.98;4.55;;;;;;;-148.88;99.77;76979.88;4999812;28;20484;-90
2023/03/12 06:43:04;;;;;;;15.98;4.88;;;;;;;-148.88;99.37;76973.78;5017344;28;20022;-90
2023/03/12 06:45:29;;;;;;;8.32;4.40;;;;;;;-148.88;98.43;76959.56;4999616;28;20041;-89
2023/03/12 06:47:54;;;;;;;13.45;6.00;;;;;;;-148.88;97.95;76951.44;4999994;28;20018;-89
2023/03/12 06:50:20;;;;;;;11.13;5.07;;;;;;;-148.88;97.88;76939.25;5017020;28;20112;-87
2023/03/12 06:52:45;;;;;;;12.82;4.80;;;;;;;-148.88;97.97;76935.19;5016316;28;20030;-87
2023/03/12 06:55:11;;;;;;;6.97;3.55;;;;;;;-148.88;98.12;76925.03;4997968;28;20033;-90
2023/03/12 06:57:36;;;;;;;12.35;4.38;;;;;;;-148.88;99.17;76923.00;4997778;28;20026;-89
2023/03/12 07:00:03;;;;;;;11.20;4.72;;;;;;;-148.88;99.09;76920.97;5000094;28;20021;-86
2023/03/12 07:02:29;;;;;;;9.23;5.03;;;;;;;-148.88;99.24;76923.00;4997160;28;20033;-91
2023/03/12 07:04:54;;;;;;;11.00;4.68;;;;;;;-148.88;99.69;76927.06;4996775;28;20514;-88
2023/03/12 07:07:20;;;;;;;19.35;6.05;;;;;;;-148.88;99.31;76923.00;4996941;28;20055;-87
2023/03/12 07:09:45;;;;;;;13.75;4.88;;;;;;;-148.88;99.05;76927.06;4996359;28;20024;-88
2023/03/12 07:12:10;;;;;;;9.95;4.55;;;;;;;-148.88;98.77;76912.84;5014583;28;20064;-87
2023/03/12 07:14:36;;;;;;;11.93;4.20;;;;;;;-148.88;98.48;76894.56;4997647;28;20049;-89
2023/03/12 07:17:03;;;;;;;6.07;3.80;;;;;;;-148.88;97.91;76886.41;5014821;28;20025;-90
2023/03/12 07:19:29;;;;;;;7.43;3.00;;;;;;;-148.88;97.20;76876.25;4996821;28;20029;-87
2023/03/12 07:21:55;;;;;;;12.15;3.47;;;;;;;-148.88;96.99;76866.09;4996864;28;20022;-88
2023/03/12 07:24:20;;;;;;;7.35;2.80;;;;;;;-148.88;96.85;76857.97;4997429;28;20026;-88
2023/03/12 07:26:45;;;;;;;6.47;3.25;;;;;;;-148.88;96.45;76855.94;5016106;28;20033;-88
2023/03/12 07:29:11;;;;;;;6.80;3.15;;;;;;;-148.88;95.52;76849.84;4997655;28;20472;-89
2023/03/12 07:31:37;;;;;;;5.75;3.13;;;;;;;-148.88;95.52;76837.66;4996554;28;20033;-89
2023/03/12 07:34:04;;;;;;;8.60;2.97;;;;;;;-148.88;95.08;76829.53;4996472;28;20076;-90
2023/03/12 07:36:33;;;;;;;9.27;3.38;;;;;;;-148.88;94.71;76825.47;4996996;28;20084;-89
2023/03/12 07:38:58;;;;;;;8.57;3.30;;;;;;;-148.88;94.97;76825.47;4997255;28;20121;-88
2023/03/12 07:41:24;;;;;;;7.38;3.15;;;;;;;-148.88;95.10;76825.47;4997014;28;20069;-88
2023/03/12 07:43:49;;;;;;;6.50;3.15;;;;;;;-148.88;95.47;76827.50;4997546;28;20050;-89
2023/03/12 07:46:15;;;;;;;8.38;3.60;;;;;;;-148.88;95.05;76829.53;4996303;28;20025;-90
2023/03/12 07:48:40;;;;;;;8.27;3.83;;;;;;;-148.88;96.08;76829.53;5014327;28;20428;-89
2023/03/12 07:51:05;;;;;;;8.95;4.75;;;;;;;-148.88;97.24;76829.53;4997114;28;20094;-88
2023/03/12 07:53:31;;;;;;;8.82;3.72;;;;;;;-148.88;97.80;76823.44;4996183;28;20479;-89
2023/03/12 07:55:56;;;;;;;7.82;4.00;;;;;;;-148.88;98.14;76821.41;4996577;28;20046;-91
2023/03/12 07:58:22;;;;;;;9.85;4.07;;;;;;;-148.88;97.81;76811.25;5014431;28;20026;-89
2023/03/12 08:00:49;;;;;;;7.72;4.20;;;;;;;-148.88;97.90;76811.25;4999004;28;20120;-88
2023/03/12 08:03:17;;;;;;;9.98;4.40;;;;;;;-148.88;98.36;76813.28;4999409;28;20017;-89
2023/03/12 08:05:43;;;;;;;7.82;4.15;;;;;;;-148.88;97.93;76803.13;4997147;28;20029;-90
2023/03/12 08:08:09;;;;;;;7.72;4.13;;;;;;;-148.88;98.49;76792.97;4997309;28;20400;-89
2023/03/12 08:10:35;;;;;;;6.03;4.13;;;;;;;-148.88;98.30;76782.81;5013862;28;20026;-89
2023/03/12 08:13:00;;;;;;;6.47;4.03;;;;;;;-148.88;97.97;76774.69;4996198;28;20411;-88
2023/03/12 08:15:25;;;;;;;8.02;4.30;;;;;;;-148.88;97.89;76764.53;4996095;28;20515;-88
2023/03/12 08:17:51;;;;;;;13.25;4.05;;;;;;;-148.88;97.27;76752.31;4996007;28;20047;-87
2023/03/12 08:20:17;;;;;;;7.10;3.88;;;;;;;-148.88;96.76;76748.25;5015268;28;20067;-88
2023/03/12 08:22:42;;;;;;;7.55;4.05;;;;;;;-148.88;96.29;76736.06;5000454;28;20084;-89
2023/03/12 08:25:08;;;;;;;9.88;4.18;;;;;;;-148.88;95.16;76736.06;5017536;28;20025;-89
2023/03/12 08:27:34;;;;;;;8.88;3.55;;;;;;;-148.88;94.67;76732.00;4999890;28;20124;-89
2023/03/12 08:29:59;;;;;;;8.18;3.65;;;;;;;-148.88;94.57;76727.94;5017392;28;20057;-88
2023/03/12 08:32:25;;;;;;;9.43;3.45;;;;;;;-148.88;94.39;76719.81;5017306;28;20029;-88
2023/03/12 08:34:51;;;;;;;6.15;3.28;;;;;;;-148.88;93.52;76709.66;5000074;28;20022;-91
2023/03/12 08:37:16;;;;;;;7.80;4.25;;;;;;;-148.88;93.89;76707.63;4999771;28;20052;-91
2023/03/12 08:39:42;;;;;;;7.18;3.35;;;;;;;-148.88;94.07;76699.50;4999894;28;20048;-89
2023/03/12 08:42:07;;;;;;;5.43;3.20;;;;;;;-148.88;94.04;76695.44;4999672;28;20404;-90
2023/03/12 08:44:33;;;;;;;8.80;3.35;;;;;;;-148.88;93.86;76703.56;4999712;28;20071;-92
2023/03/12 08:46:58;;;;;;;7.43;3.50;;;;;;;-148.88;93.98;76701.53;5000291;28;20022;-89
2023/03/12 08:49:24;;;;;;;6.45;3.03;;;;;;;-148.88;93.94;76703.56;5023309;28;20069;-91
2023/03/12 08:51:53;;;;;;;8.85;3.95;;;;;;;-148.88;93.97;76707.63;5016690;28;20025;-93
2023/03/12 08:54:19;;;;;;;6.93;3.78;;;;;;;-148.88;94.41;76701.53;5016262;28;20040;-93
2023/03/12 08:56:50;;;;;;;8.02;3.20;;;;;;;-148.88;94.70;76699.50;5020021;28;20045;-94
2023/03/12 08:59:16;;;;;;;6.90;3.72;;;;;;;-148.88;94.42;76703.56;4999489;28;20034;-90
2023/03/12 09:01:41;;;;;;;6.40;3.50;;;;;;;-148.88;95.11;76695.44;5018274;28;20081;-93
2023/03/12 09:04:07;;;;;;;6.43;3.63;;;;;;;-148.88;95.46;76691.38;5019742;28;20030;-92
2023/03/12 09:06:34;;;;;;;8.35;3.92;;;;;;;-148.88;95.34;76687.31;4999181;28;20060;-91
2023/03/12 09:09:03;;;;;;;8.30;3.25;;;;;;;-148.88;95.42;76681.22;5000026;28;20025;-91
2023/03/12 09:11:32;;;;;;;6.28;3.30;;;;;;;-148.88;95.74;76671.06;4999210;28;20045;-91
2023/03/12 09:13:58;;;;;;;5.70;3.40;;;;;;;-148.88;95.68;76671.06;4998956;28;20022;-91
2023/03/12 09:16:23;;;;;;;9.65;4.18;;;;;;;-148.88;96.46;76673.09;4998827;28;20022;-91
2023/03/12 09:18:49;;;;;;;7.10;3.17;;;;;;;-148.88;96.92;76658.88;4998803;28;20466;-92
2023/03/12 09:21:14;;;;;;;7.13;3.22;;;;;;;-148.88;97.29;76654.81;4998974;28;20041;-91
2023/03/12 09:23:39;;;;;;;9.38;3.78;;;;;;;-148.88;97.15;76662.94;4998774;28;20018;-91
2023/03/12 09:26:08;;;;;;;7.65;3.33;;;;;;;-148.88;99.05;76658.88;4998769;28;20033;-92
2023/03/12 09:28:34;;;;;;;7.13;3.70;;;;;;;-148.88;99.62;76662.94;4998649;28;20495;-91
2023/03/12 09:31:01;;;;;;;6.03;3.47;;;;;;;-148.88;100.00;76660.91;4998461;28;20030;-91
2023/03/12 09:33:26;;;;;;;6.13;3.70;;;;;;;-148.88;100.00;76662.94;4999016;28;20026;-91
2023/03/12 09:35:57;;;;;;;7.68;3.55;;;;;;;-148.88;100.00;76673.09;4998454;28;20507;-90
2023/03/12 09:38:23;;;;;;;10.45;4.20;;;;;;;-148.88;100.00;76671.06;5000212;28;20141;-91
2023/03/12 09:40:48;;;;;;;6.82;3.53;;;;;;;-148.88;100.00;76669.03;5000103;28;20030;-91
2023/03/12 09:43:26;;;;;;;9.35;3.60;;;;;;;-148.88;100.00;76662.94;5009685;28;20013;-92
2023/03/12 09:46:22;;;;;;;5.72;2.85;;;;;;;-148.88;100.00;76660.91;5010613;28;20021;-93
2023/03/12 09:48:50;;;;;;;4.88;2.58;;;;;;;-148.88;100.00;76656.84;5004441;28;20036;-92
2023/03/12 09:51:21;;;;;;;7.57;2.92;;;;;;;-148.88;100.00;76646.69;5000214;28;20109;-92
2023/03/12 09:53:56;;;;;;;7.32;2.10;;;;;;;-148.88;100.00;76650.75;4999791;28;20030;-92
2023/03/12 09:56:22;;;;;;;3.97;2.17;;;;;;;-148.88;100.00;76650.75;5016974;28;20538;-93
2023/03/12 09:58:49;;;;;;;7.25;2.75;;;;;;;-148.88;100.00;76638.56;4999361;28;20027;-91
2023/03/12 10:01:36;;;;;;;7.55;3.10;;;;;;;-148.88;100.00;76642.63;5000821;28;20042;-92
2023/03/12 10:04:22;;;;;;;8.45;3.00;;;;;;;-148.88;100.00;76640.59;5002467;28;20034;-92
2023/03/12 10:06:51;;;;;;;8.00;3.28;;;;;;;-148.88;100.00;76634.50;5002847;28;20029;-92
2023/03/12 10:09:46;;;;;;;7.78;2.83;;;;;;;-148.88;100.00;76626.38;5002831;28;20026;-90
2023/03/12 10:12:28;;;;;;;8.30;3.33;;;;;;;-148.88;100.00;76628.41;4989756;28;20038;-92
2023/03/12 10:15:21;;;;;;;9.98;3.25;;;;;;;-148.88;100.00;76622.31;5001949;28;20026;-90
2023/03/12 10:18:09;;;;;;;7.38;3.72;;;;;;;-148.88;100.00;76628.41;5001033;28;20036;-89
2023/03/12 10:20:59;;;;;;;10.00;3.30;;;;;;;-148.88;100.00;76630.44;5018176;28;20034;-89
2023/03/12 10:24:06;;;;;;;7.22;3.35;;;;;;;-148.88;100.00;76630.44;4999708;28;20037;-89
2023/03/12 10:26:44;;;;;;;7.45;3.47;;;;;;;-148.88;100.00;76642.63;5000900;28;20038;-90
2023/03/12 10:29:27;;;;;;;10.95;3.97;;;;;;;-148.88;100.00;76636.53;5004199;28;20060;-89
2023/03/12 10:31:59;;;;;;;6.72;2.95;;;;;;;-148.88;100.00;76634.50;5016866;28;20032;-88
2023/03/12 10:34:36;;;;;;;9.68;4.07;;;;;;;-148.88;100.00;76626.38;5014899;28;20017;-89
2023/03/12 10:37:23;;;;;;;9.48;4.25;;;;;;;-148.88;100.00;76626.38;4999332;28;20026;-91
2023/03/12 10:39:50;;;;;;;8.30;4.13;;;;;;;-148.88;100.00;76626.38;5002478;28;20079;-91
2023/03/12 10:42:24;;;;;;;8.38;3.83;;;;;;;-148.88;100.00;76622.31;4999217;28;20099;-91
2023/03/12 10:44:53;;;;;;;8.65;4.75;;;;;;;-148.88;100.00;76624.34;5014861;28;20069;-88
2023/03/12 10:47:36;;;;;;;10.65;4.80;;;;;;;-148.88;100.00;76622.31;4997546;28;20395;-88
2023/03/12 10:50:22;;;;;;;12.63;4.68;;;;;;;-148.88;100.00;76620.28;4997765;28;20373;-87
2023/03/12 10:52:49;;;;;;;8.65;4.22;;;;;;;-148.88;100.00;76618.25;4997361;28;20021;-89
2023/03/12 10:55:25;;;;;;;8.77;5.05;;;;;;;-148.88;100.00;76624.34;4997452;28;20018;-91
2023/03/12 10:57:52;;;;;;;16.58;6.55;;;;;;;-148.88;100.00;76630.44;4997264;28;20026;-90
2023/03/12 11:00:26;;;;;;;14.15;5.68;;;;;;;-148.88;100.00;76630.44;4997589;28;20108;-90
2023/03/12 11:03:02;;;;;;;10.18;5.03;;;;;;;-148.88;100.00;76628.41;5014582;28;20064;-89
2023/03/12 11:05:35;;;;;;;9.27;5.22;;;;;;;-148.88;100.00;76630.44;4996952;28;20022;-90
2023/03/12 11:08:03;;;;;;;12.73;5.45;;;;;;;-148.88;100.00;76634.50;4997062;28;20021;-91
2023/03/12 11:10:31;;;;;;;12.05;5.95;;;;;;;-148.88;100.00;76618.25;4996877;28;20026;-91
2023/03/12 11:13:03;;;;;;;11.32;6.70;;;;;;;-148.88;100.00;76616.22;5014811;28;20022;-90
2023/03/12 11:15:38;;;;;;;11.85;6.88;;;;;;;-148.88;100.00;76606.06;5014340;28;20129;-90
2023/03/12 11:18:32;;;;;;;17.73;7.80;;;;;;;-148.88;100.00;76597.91;4996425;28;20041;-87